Погода Маркушувна 2 недели

Люблинское воеводство, Польша

25 мая-07 июня
  • 25мая
    Сегодня
    +12°
    +26°
    Облачно с прояснениями
    ВремяПогодаТемператураВлажностьДавлениеВетер, м/сВероятность осадков
    02:00Практически безоблачно+15°C61 %746 мм1.4 м/с2 %
    05:00Облачно с прояснениями+14°C67 %746 мм1.1 м/с2 %
    08:00Облачно с прояснениями+19°C61 %747 мм1.8 м/с2 %
    11:00Облачно с прояснениями+23°C49 %747 мм2.0 м/с2 %
    14:00Облачно с прояснениями+26°C40 %746 мм2.9 м/с35 %
    17:00Небольшая облачность, ливень+22°C70 %746 мм2.3 м/с59 %
    20:00Облачно с прояснениями+19°C75 %746 мм1.7 м/с7 %
    23:00Облачно с прояснениями+16°C82 %746 мм1.3 м/с2 %
  • 26мая
    Воскресенье
    +11°
    +26°
    Ясно и безоблачно
    ВремяПогодаТемператураВлажностьДавлениеВетер, м/сВероятность осадков
    02:00Ясно и безоблачно+14°C82 %746 мм1.0 м/с2 %
    05:00Ясно и безоблачно+13°C84 %746 мм1.2 м/с2 %
    08:00Облачно с прояснениями+18°C66 %747 мм1.7 м/с2 %
    11:00Небольшая облачность+23°C44 %747 мм2.5 м/с2 %
    14:00Ясно и безоблачно+25°C30 %747 мм3.4 м/с2 %
    17:00Ясно и безоблачно+25°C29 %746 мм3.2 м/с3 %
    20:00Ясно и безоблачно+20°C42 %746 мм1.4 м/с2 %
    23:00Облачно с прояснениями+16°C44 %747 мм1.2 м/с2 %
  • 27мая
    Понедельник
    +11°
    +26°
    Ясно и безоблачно
    ВремяПогодаТемператураВлажностьДавлениеВетер, м/сВероятность осадков
    02:00Ясно и безоблачно+13°C48 %747 мм1.2 м/с2 %
    05:00Ясно и безоблачно+12°C52 %747 мм1.1 м/с2 %
    08:00Ясно и безоблачно+19°C50 %747 мм1.8 м/с2 %
    11:00Ясно и безоблачно+24°C26 %747 мм3.5 м/с2 %
    14:00Ясно и безоблачно+26°C25 %747 мм3.7 м/с2 %
    17:00Практически безоблачно+24°C26 %746 мм3.2 м/с2 %
    20:00Ясно и безоблачно+19°C43 %745 мм1.6 м/с2 %
    23:00Ясно и безоблачно+16°C41 %745 мм0.9 м/с2 %
  • 28мая
    Вторник
    +11°
    +27°
    Облачно с прояснениями
    ВремяПогодаТемператураВлажностьДавлениеВетер, м/сВероятность осадков
    02:00Ясно и безоблачно+13°C49 %745 мм1.0 м/с2 %
    05:00Ясно и безоблачно+12°C58 %744 мм1.2 м/с2 %
    08:00Облачно с прояснениями+19°C52 %745 мм1.8 м/с2 %
    11:00Облачно с прояснениями+24°C29 %745 мм3.7 м/с2 %
    14:00Облачно с прояснениями+26°C26 %744 мм4.1 м/с2 %
    17:00Небольшая облачность+24°C28 %743 мм2.8 м/с2 %
    20:00Облачно с прояснениями+20°C54 %742 мм1.4 м/с2 %
    23:00Ясно и безоблачно+17°C45 %743 мм1.0 м/с2 %
  • 29мая
    Среда
    +12°
    +26°
    Практически безоблачно
    ВремяПогодаТемператураВлажностьДавлениеВетер, м/сВероятность осадков
    02:00Облачно с прояснениями+15°C63 %742 мм0.1 м/с2 %
    05:00Практически безоблачно+12°C72 %742 мм0.3 м/с2 %
    08:00Ясно и безоблачно+19°C53 %742 мм1.1 м/с3 %
    11:00Небольшая облачность+24°C32 %742 мм2.9 м/с11 %
    14:00Практически безоблачно+25°C31 %741 мм2.9 м/с26 %
    17:00Практически безоблачно+24°C32 %739 мм2.6 м/с30 %
    20:00Небольшая облачность+20°C58 %739 мм0.6 м/с17 %
    23:00Практически безоблачно+17°C60 %739 мм0.2 м/с12 %
Мы используем cookies
Соглашаюсь